Time;durP1;ratioP1;P1;durP2;ratioP2;P2;SDS_P1;SDS_P2;PMS_P1;PMS_P2;Temp;Humidity;BMP_temperature;BMP_pressure;BME280_temperature;BME280_humidity;BME280_pressure;Samples;Min_cycle;Max_cycle;Signal;HPM_P1;HPM_P2
2022/10/10 00:01:11;;;;;;;3.70;2.00;;;11.80;99.90;;;;;;5131134;27;20240;-69
2022/10/10 00:03:38;;;;;;;3.87;1.90;;;11.80;99.90;;;;;;5131412;27;20205;-70
2022/10/10 00:06:05;;;;;;;3.80;2.00;;;11.80;99.90;;;;;;5131225;27;20234;-69
2022/10/10 00:08:33;;;;;;;4.00;2.30;;;11.70;99.90;;;;;;5131446;27;20208;-69
2022/10/10 00:11:00;;;;;;;4.47;1.70;;;11.70;99.90;;;;;;5131126;27;20216;-69
2022/10/10 00:13:27;;;;;;;3.90;2.07;;;11.70;99.90;;;;;;5131349;27;20212;-69
2022/10/10 00:15:54;;;;;;;4.83;2.07;;;11.60;99.90;;;;;;5130568;27;20566;-69
2022/10/10 00:18:21;;;;;;;3.43;1.97;;;11.60;99.90;;;;;;5131180;27;20204;-69
2022/10/10 00:20:47;;;;;;;3.40;1.87;;;11.60;99.90;;;;;;5119509;27;20578;-69
2022/10/10 00:23:14;;;;;;;2.77;1.77;;;11.60;99.90;;;;;;5110647;28;20210;-70
2022/10/10 00:25:42;;;;;;;4.80;2.20;;;11.60;99.90;;;;;;5110309;28;20225;-69
2022/10/10 00:28:09;;;;;;;4.47;2.37;;;11.60;99.90;;;;;;5125445;27;20686;-70
2022/10/10 00:30:35;;;;;;;2.93;1.80;;;11.50;99.90;;;;;;5130887;27;20209;-69
2022/10/10 00:33:02;;;;;;;3.90;1.90;;;11.50;99.90;;;;;;5126602;27;20229;-70
2022/10/10 00:35:29;;;;;;;5.73;2.37;;;11.50;99.90;;;;;;5109872;28;20206;-69
2022/10/10 00:37:56;;;;;;;3.37;2.00;;;11.50;99.90;;;;;;5109857;28;20217;-70
2022/10/10 00:40:23;;;;;;;4.60;2.10;;;11.40;99.90;;;;;;5109560;27;20871;-69
2022/10/10 00:42:51;;;;;;;7.53;2.37;;;11.40;99.90;;;;;;5129114;27;20198;-69
2022/10/10 00:45:32;;;;;;;2.10;1.90;;;11.40;99.90;;;;;;5130370;27;20209;-70
2022/10/10 00:48:04;;;;;;;2.00;1.80;;;11.40;99.90;;;;;;5130055;27;20213;-69
2022/10/10 00:50:32;;;;;;;2.53;2.13;;;11.40;99.90;;;;;;5109710;28;20653;-70
2022/10/10 00:53:00;;;;;;;11.63;2.50;;;11.40;99.90;;;;;;5127150;27;20205;-71
2022/10/10 00:55:27;;;;;;;3.53;2.13;;;11.40;99.90;;;;;;5129934;27;20206;-70
2022/10/10 00:57:55;;;;;;;6.20;2.27;;;11.40;99.90;;;;;;5130089;27;20213;-69
2022/10/10 01:00:22;;;;;;;4.20;2.00;;;11.40;99.90;;;;;;5129824;27;20238;-70
2022/10/10 01:02:49;;;;;;;3.43;2.10;;;11.30;99.90;;;;;;5129934;27;20207;-69
2022/10/10 01:05:16;;;;;;;2.30;2.10;;;11.30;99.90;;;;;;5129578;27;20656;-69
2022/10/10 01:07:44;;;;;;;4.87;2.10;;;11.30;99.90;;;;;;5129826;27;20217;-69
2022/10/10 01:10:14;;;;;;;9.80;2.10;;;11.30;99.90;;;;;;5129340;27;20212;-69
2022/10/10 01:12:53;;;;;;;4.67;1.90;;;11.30;99.90;;;;;;5129619;27;20205;-69
2022/10/10 01:15:29;;;;;;;4.33;2.47;;;11.30;99.90;;;;;;5113834;27;20210;-69
2022/10/10 01:18:03;;;;;;;6.93;2.60;;;11.30;99.90;;;;;;5122411;27;20209;-69
2022/10/10 01:20:46;;;;;;;4.90;2.30;;;11.20;99.90;;;;;;5129527;27;20196;-69
2022/10/10 01:23:57;;;;;;;3.87;2.13;;;11.20;99.90;;;;;;5129572;27;20198;-69
2022/10/10 01:27:01;;;;;;;5.80;2.13;;;11.20;99.90;;;;;;5070305;28;20700;-69
2022/10/10 01:29:32;;;;;;;3.03;2.00;;;11.20;99.90;;;;;;5115595;27;20205;-69
2022/10/10 01:32:08;;;;;;;2.77;2.03;;;11.20;99.90;;;;;;5129088;27;20204;-69
2022/10/10 01:34:44;;;;;;;2.10;1.90;;;11.10;99.90;;;;;;5129122;27;20659;-69
2022/10/10 01:37:17;;;;;;;6.47;2.13;;;11.10;99.90;;;;;;5108720;28;20205;-68
2022/10/10 01:39:54;;;;;;;3.13;2.00;;;11.10;99.90;;;;;;5108953;28;20187;-68
2022/10/10 01:42:28;;;;;;;3.03;1.90;;;11.10;99.90;;;;;;5120276;27;20204;-69
2022/10/10 01:44:56;;;;;;;3.40;2.10;;;11.10;99.90;;;;;;5129313;27;20186;-69
2022/10/10 01:47:24;;;;;;;4.87;2.23;;;11.10;99.90;;;;;;5128847;27;20222;-69
2022/10/10 01:49:54;;;;;;;2.50;2.03;;;11.00;99.90;;;;;;5128965;27;20220;-69
2022/10/10 01:52:35;;;;;;;3.30;2.20;;;11.00;99.90;;;;;;5116737;27;20202;-69
2022/10/10 01:55:23;;;;;;;4.27;2.00;;;11.00;99.90;;;;;;5125147;27;20216;-69
2022/10/10 01:58:04;;;;;;;2.47;2.27;;;10.90;99.90;;;;;;5129145;27;20200;-69
2022/10/10 02:00:45;;;;;;;2.93;1.93;;;10.90;99.90;;;;;;5129055;27;20233;-69
2022/10/10 02:03:16;;;;;;;2.70;2.00;;;10.90;99.90;;;;;;5129045;27;20194;-68
2022/10/10 02:05:50;;;;;;;4.10;2.13;;;10.90;99.90;;;;;;5129101;27;20190;-69
2022/10/10 02:08:23;;;;;;;2.77;2.10;;;10.90;99.90;;;;;;5129154;27;20236;-69
2022/10/10 02:10:55;;;;;;;4.70;2.47;;;10.90;99.90;;;;;;5128955;27;20231;-69
2022/10/10 02:13:27;;;;;;;2.60;2.37;;;10.80;99.90;;;;;;5128988;27;20212;-69
2022/10/10 02:15:59;;;;;;;2.63;1.93;;;10.90;99.90;;;;;;5128965;27;20199;-69
2022/10/10 02:18:29;;;;;;;4.27;2.10;;;10.90;99.90;;;;;;5128554;27;20197;-69
2022/10/10 02:20:56;;;;;;;4.10;2.17;;;10.90;99.90;;;;;;5128378;27;20201;-69
2022/10/10 02:23:23;;;;;;;3.37;2.10;;;10.90;99.90;;;;;;5128302;27;20203;-69
2022/10/10 02:25:54;;;;;;;4.30;2.20;;;10.90;99.90;;;;;;5128120;27;20201;-68
2022/10/10 02:28:25;;;;;;;3.83;2.20;;;10.80;99.90;;;;;;5123093;27;20217;-68
2022/10/10 02:30:57;;;;;;;8.20;2.37;;;10.80;99.90;;;;;;5128130;27;20297;-68
2022/10/10 02:33:29;;;;;;;3.10;2.20;;;10.80;99.90;;;;;;5123908;27;20197;-68
2022/10/10 02:35:57;;;;;;;3.57;2.23;;;10.80;99.90;;;;;;5126087;27;20201;-68
2022/10/10 02:38:25;;;;;;;6.67;2.30;;;10.80;99.90;;;;;;5126550;27;20209;-68
2022/10/10 02:40:53;;;;;;;4.90;2.07;;;10.80;99.90;;;;;;5125888;27;20238;-68
2022/10/10 02:43:20;;;;;;;3.13;2.10;;;10.80;99.90;;;;;;5127770;27;20212;-68
2022/10/10 02:45:47;;;;;;;6.93;2.83;;;10.80;99.90;;;;;;5130588;27;20210;-68
2022/10/10 02:48:15;;;;;;;4.93;2.60;;;10.80;99.90;;;;;;5129015;27;20236;-68
2022/10/10 02:50:43;;;;;;;3.23;2.10;;;10.80;99.90;;;;;;5110116;28;20217;-69
2022/10/10 02:53:10;;;;;;;3.57;2.07;;;10.80;99.90;;;;;;5129437;27;20205;-68
2022/10/10 02:55:37;;;;;;;2.90;2.10;;;10.80;99.90;;;;;;5130215;27;20201;-69
2022/10/10 02:58:04;;;;;;;5.17;2.37;;;10.80;99.90;;;;;;5130361;27;20232;-69
2022/10/10 03:00:30;;;;;;;4.80;2.03;;;10.70;99.90;;;;;;5129985;27;20970;-69
2022/10/10 03:02:57;;;;;;;4.73;2.23;;;10.60;99.90;;;;;;5130015;27;20220;-68
2022/10/10 03:05:25;;;;;;;8.60;2.63;;;10.60;99.90;;;;;;5129945;27;20202;-68
2022/10/10 03:07:52;;;;;;;6.03;3.13;;;10.60;99.90;;;;;;5130480;27;20225;-68
2022/10/10 03:10:18;;;;;;;3.57;2.23;;;10.60;99.90;;;;;;5129824;27;20667;-69
2022/10/10 03:12:45;;;;;;;2.30;1.80;;;10.50;99.90;;;;;;5128975;27;20201;-69
2022/10/10 03:15:12;;;;;;;2.87;2.00;;;10.50;99.90;;;;;;5130953;27;20209;-68
2022/10/10 03:17:39;;;;;;;5.20;2.10;;;10.50;99.90;;;;;;5131286;27;20209;-68
2022/10/10 03:20:07;;;;;;;2.80;2.30;;;10.50;99.90;;;;;;5131890;27;20212;-69
2022/10/10 03:22:35;;;;;;;3.43;1.70;;;10.50;99.90;;;;;;5127757;27;20240;-68
2022/10/10 03:25:02;;;;;;;5.97;2.73;;;10.40;99.90;;;;;;5131524;27;20220;-68
2022/10/10 03:27:29;;;;;;;5.37;2.33;;;10.50;99.90;;;;;;5131338;27;20232;-68
2022/10/10 03:29:55;;;;;;;4.37;2.20;;;10.40;99.90;;;;;;5131351;27;20204;-69
2022/10/10 03:32:22;;;;;;;3.20;2.40;;;10.40;99.90;;;;;;5131621;27;20212;-68
2022/10/10 03:34:49;;;;;;;2.40;2.00;;;10.40;99.90;;;;;;5131345;27;20215;-69
2022/10/10 03:37:16;;;;;;;4.60;2.07;;;10.40;99.90;;;;;;5131831;27;20201;-69
2022/10/10 03:39:44;;;;;;;4.53;2.50;;;10.40;99.90;;;;;;5131551;27;20202;-69
2022/10/10 03:42:10;;;;;;;4.83;2.33;;;10.40;99.90;;;;;;5130990;27;20205;-69
2022/10/10 03:44:37;;;;;;;3.63;2.23;;;10.40;99.90;;;;;;5131320;27;20599;-69
2022/10/10 03:47:04;;;;;;;4.03;2.13;;;10.30;99.90;;;;;;5131003;27;20233;-69
2022/10/10 03:49:31;;;;;;;5.40;2.40;;;10.40;99.90;;;;;;5119247;27;20622;-68
2022/10/10 03:51:59;;;;;;;3.37;2.10;;;10.30;99.90;;;;;;5119786;27;20213;-69
2022/10/10 03:54:26;;;;;;;2.50;1.93;;;10.30;99.90;;;;;;5131586;27;20205;-69
2022/10/10 03:56:54;;;;;;;4.80;1.93;;;10.20;99.90;;;;;;5131121;27;20212;-68
2022/10/10 03:59:21;;;;;;;4.27;2.20;;;10.20;99.90;;;;;;5131163;27;20197;-68
2022/10/10 04:01:48;;;;;;;4.53;2.40;;;10.20;99.90;;;;;;5130959;27;20272;-68
2022/10/10 04:04:15;;;;;;;3.40;1.83;;;10.10;99.90;;;;;;5131433;27;20215;-69
2022/10/10 04:06:41;;;;;;;3.10;2.10;;;10.10;99.90;;;;;;5131381;27;20201;-68
2022/10/10 04:09:08;;;;;;;5.83;2.37;;;10.10;99.90;;;;;;5131345;27;20220;-68
2022/10/10 04:11:37;;;;;;;3.67;1.93;;;10.10;99.90;;;;;;5131052;27;20205;-68
2022/10/10 04:14:05;;;;;;;2.43;1.80;;;10.00;99.90;;;;;;5131125;27;20206;-68
2022/10/10 04:16:32;;;;;;;3.90;2.33;;;10.10;99.90;;;;;;5131258;27;20239;-68
2022/10/10 04:18:59;;;;;;;6.03;2.10;;;10.00;99.90;;;;;;5131039;27;20201;-68
2022/10/10 04:21:26;;;;;;;4.63;2.17;;;10.00;99.90;;;;;;5121010;27;20213;-68
2022/10/10 04:23:53;;;;;;;3.80;2.10;;;10.00;99.90;;;;;;5122875;27;20209;-68
2022/10/10 04:26:20;;;;;;;3.07;2.10;;;10.00;99.90;;;;;;5130647;27;20209;-68
2022/10/10 04:28:46;;;;;;;4.07;2.10;;;10.00;99.90;;;;;;5131071;27;20229;-68
2022/10/10 04:31:14;;;;;;;5.70;2.43;;;10.00;99.90;;;;;;5130797;27;20552;-68
2022/10/10 04:33:41;;;;;;;3.07;2.33;;;9.90;99.90;;;;;;5130623;27;20668;-68
2022/10/10 04:36:08;;;;;;;3.00;2.30;;;9.90;99.90;;;;;;5130520;27;20217;-69
2022/10/10 04:38:35;;;;;;;2.73;2.40;;;9.90;99.90;;;;;;5130291;27;20673;-68
2022/10/10 04:41:02;;;;;;;5.57;2.20;;;9.90;99.90;;;;;;5129850;27;20225;-68
2022/10/10 04:43:29;;;;;;;3.43;1.97;;;9.90;99.90;;;;;;5130640;27;20201;-69
2022/10/10 04:45:57;;;;;;;3.63;1.70;;;9.90;99.90;;;;;;5130296;27;20212;-69
2022/10/10 04:48:25;;;;;;;3.90;2.17;;;9.90;99.90;;;;;;5127416;27;20274;-69
2022/10/10 04:50:53;;;;;;;3.27;2.10;;;9.90;99.90;;;;;;5109551;28;20202;-69
2022/10/10 04:53:19;;;;;;;4.50;2.00;;;9.90;99.90;;;;;;5109677;28;20202;-69
2022/10/10 04:55:46;;;;;;;3.67;2.57;;;9.80;99.90;;;;;;5109644;28;20564;-69
2022/10/10 04:58:13;;;;;;;4.10;2.50;;;9.80;99.90;;;;;;5109486;28;20228;-70
2022/10/10 05:00:40;;;;;;;5.70;2.77;;;9.90;99.90;;;;;;5109175;28;20242;-69
2022/10/10 05:03:08;;;;;;;2.43;2.23;;;9.90;99.90;;;;;;5109321;28;20206;-69
2022/10/10 05:05:36;;;;;;;2.43;2.27;;;9.80;99.90;;;;;;5109027;28;20198;-69
2022/10/10 05:08:03;;;;;;;4.70;2.23;;;9.80;99.90;;;;;;5115494;27;20225;-69
2022/10/10 05:10:30;;;;;;;6.27;2.70;;;9.80;99.90;;;;;;5109814;27;20206;-69
2022/10/10 05:12:56;;;;;;;8.00;2.87;;;9.80;99.90;;;;;;5109097;28;20202;-69
2022/10/10 05:15:23;;;;;;;4.77;2.67;;;9.80;99.90;;;;;;5109231;28;20209;-69
2022/10/10 05:17:50;;;;;;;4.20;2.33;;;9.80;99.90;;;;;;5123606;27;20288;-69
2022/10/10 05:20:17;;;;;;;4.67;2.53;;;9.80;99.90;;;;;;5124024;27;20209;-69
2022/10/10 05:22:45;;;;;;;4.13;2.30;;;9.80;99.90;;;;;;5124842;27;20228;-69
2022/10/10 05:25:12;;;;;;;2.87;1.87;;;9.80;99.90;;;;;;5129521;27;20580;-69
2022/10/10 05:27:40;;;;;;;2.40;2.20;;;9.80;99.90;;;;;;5129533;27;20591;-69
2022/10/10 05:30:07;;;;;;;6.20;2.87;;;9.70;99.90;;;;;;5129766;27;20250;-69
2022/10/10 05:32:35;;;;;;;2.90;2.57;;;9.80;99.90;;;;;;5129576;27;20212;-69
2022/10/10 05:35:03;;;;;;;4.73;2.33;;;9.80;99.90;;;;;;5119783;27;20263;-69
2022/10/10 05:37:29;;;;;;;4.53;2.47;;;9.80;99.90;;;;;;5108758;28;20561;-69
2022/10/10 05:39:57;;;;;;;3.23;2.10;;;9.80;99.90;;;;;;5108671;28;20225;-69
2022/10/10 05:42:24;;;;;;;5.17;2.40;;;9.80;99.90;;;;;;5108797;27;20202;-69
2022/10/10 05:44:51;;;;;;;3.33;2.33;;;9.80;99.90;;;;;;5108698;28;20206;-69
2022/10/10 05:47:18;;;;;;;5.43;2.43;;;9.80;99.90;;;;;;5108328;28;20206;-69
2022/10/10 05:49:45;;;;;;;3.20;2.20;;;9.80;99.90;;;;;;5122387;27;20204;-69
2022/10/10 05:52:11;;;;;;;6.27;2.67;;;9.80;99.90;;;;;;5128785;27;20224;-69
2022/10/10 05:54:38;;;;;;;3.73;2.50;;;9.80;99.90;;;;;;5129185;27;20212;-69
2022/10/10 05:57:06;;;;;;;4.53;2.70;;;9.80;99.90;;;;;;5128322;27;20212;-69
2022/10/10 05:59:33;;;;;;;2.73;2.43;;;9.80;99.90;;;;;;5128647;27;20565;-69
2022/10/10 06:02:00;;;;;;;4.37;2.37;;;9.80;99.90;;;;;;5128742;27;20205;-69
2022/10/10 06:04:26;;;;;;;4.97;2.37;;;9.80;99.90;;;;;;5129103;27;20205;-69
2022/10/10 06:06:53;;;;;;;2.90;2.33;;;9.80;99.90;;;;;;5128706;27;20205;-69
2022/10/10 06:09:20;;;;;;;2.50;2.30;;;9.70;99.90;;;;;;5128674;27;20225;-69
2022/10/10 06:11:46;;;;;;;4.90;2.30;;;9.80;99.90;;;;;;5128664;27;20209;-69
2022/10/10 06:14:15;;;;;;;4.40;2.40;;;9.70;99.90;;;;;;5128612;27;20208;-69
2022/10/10 06:16:44;;;;;;;5.73;2.57;;;9.70;99.90;;;;;;5128316;27;20201;-69
2022/10/10 06:19:10;;;;;;;2.93;2.30;;;9.70;99.90;;;;;;5128062;27;20629;-69
2022/10/10 06:21:37;;;;;;;2.00;1.90;;;9.70;99.90;;;;;;5128939;27;20209;-69
2022/10/10 06:24:04;;;;;;;3.60;2.60;;;9.70;99.90;;;;;;5128700;27;20201;-69
2022/10/10 06:26:31;;;;;;;3.57;2.50;;;9.60;99.90;;;;;;5128376;27;20232;-69
2022/10/10 06:28:58;;;;;;;3.73;2.23;;;9.60;99.90;;;;;;5128417;27;20262;-69
2022/10/10 06:31:26;;;;;;;4.70;2.80;;;9.60;99.90;;;;;;5128562;27;20205;-69
2022/10/10 06:33:52;;;;;;;6.73;2.73;;;9.60;99.90;;;;;;5128339;27;20209;-69
2022/10/10 06:36:19;;;;;;;5.03;2.40;;;9.70;99.90;;;;;;5128467;27;20221;-69
2022/10/10 06:38:46;;;;;;;3.93;2.60;;;9.70;99.90;;;;;;5128411;27;20213;-69
2022/10/10 06:41:13;;;;;;;3.17;2.47;;;9.70;99.90;;;;;;5128238;27;20574;-69
2022/10/10 06:43:41;;;;;;;4.83;2.43;;;9.80;99.90;;;;;;5128249;27;20209;-69
2022/10/10 06:46:09;;;;;;;6.07;2.83;;;9.80;99.90;;;;;;5128348;27;20206;-69
2022/10/10 06:48:37;;;;;;;3.90;2.67;;;9.80;99.90;;;;;;5123958;27;20218;-69
2022/10/10 06:51:06;;;;;;;6.17;2.80;;;9.80;99.90;;;;;;5108969;28;20217;-69
2022/10/10 06:53:33;;;;;;;2.83;2.00;;;9.80;99.90;;;;;;5128362;27;20206;-69
2022/10/10 06:56:00;;;;;;;4.27;2.43;;;9.90;99.90;;;;;;5127675;27;20802;-69
2022/10/10 06:58:29;;;;;;;3.77;2.50;;;10.00;99.90;;;;;;5127876;27;20201;-69
2022/10/10 07:00:58;;;;;;;3.13;2.47;;;10.00;99.90;;;;;;5127594;27;20236;-69
2022/10/10 07:03:25;;;;;;;3.93;2.30;;;10.00;99.90;;;;;;5128225;27;20205;-69
2022/10/10 07:05:55;;;;;;;5.63;2.60;;;10.00;99.90;;;;;;5127621;27;20212;-69
2022/10/10 07:08:23;;;;;;;3.73;2.50;;;10.00;99.90;;;;;;5127979;27;20249;-69
2022/10/10 07:10:50;;;;;;;4.30;2.70;;;10.10;99.90;;;;;;5127847;27;20216;-69
2022/10/10 07:13:17;;;;;;;3.03;2.50;;;10.10;99.90;;;;;;5127860;27;20219;-69
2022/10/10 07:15:44;;;;;;;3.97;2.50;;;10.20;99.90;;;;;;5128042;27;20208;-69
2022/10/10 07:18:11;;;;;;;4.90;2.50;;;10.20;99.90;;;;;;5127825;27;20205;-69
2022/10/10 07:20:39;;;;;;;4.87;2.37;;;10.30;99.90;;;;;;5128094;27;20202;-69
2022/10/10 07:23:08;;;;;;;3.80;2.90;;;10.30;99.90;;;;;;5127921;27;20236;-69
2022/10/10 07:25:37;;;;;;;3.67;2.37;;;10.40;99.90;;;;;;5127823;27;20213;-69
2022/10/10 07:28:04;;;;;;;3.87;2.33;;;10.50;99.90;;;;;;5127774;27;20201;-69
2022/10/10 07:30:30;;;;;;;4.27;2.27;;;10.50;99.90;;;;;;5131109;27;20251;-69
2022/10/10 07:32:57;;;;;;;2.40;2.20;;;10.50;99.90;;;;;;5131434;27;20202;-69
2022/10/10 07:35:26;;;;;;;5.03;2.17;;;10.50;99.90;;;;;;5131649;27;20664;-69
2022/10/10 07:37:54;;;;;;;4.37;2.60;;;10.50;99.90;;;;;;5131560;27;20228;-69
2022/10/10 07:40:23;;;;;;;2.20;2.00;;;10.50;99.90;;;;;;5131389;27;20274;-69
2022/10/10 07:42:50;;;;;;;3.80;2.47;;;10.50;99.90;;;;;;5131600;27;20217;-69
2022/10/10 07:45:17;;;;;;;4.50;2.53;;;10.60;99.90;;;;;;5131677;27;20803;-69
2022/10/10 07:47:44;;;;;;;2.70;2.33;;;10.70;99.90;;;;;;5131363;27;20568;-68
2022/10/10 07:50:12;;;;;;;3.30;1.90;;;10.80;99.90;;;;;;5131141;27;20244;-69
2022/10/10 07:52:39;;;;;;;4.13;2.60;;;10.80;99.90;;;;;;5131586;27;20209;-69
2022/10/10 07:55:07;;;;;;;2.80;2.23;;;10.90;99.90;;;;;;5131353;27;20213;-68
2022/10/10 07:57:35;;;;;;;4.97;2.37;;;11.00;99.90;;;;;;5127357;27;20198;-69
2022/10/10 08:00:04;;;;;;;3.67;2.00;;;11.00;99.90;;;;;;5110532;28;20254;-69
2022/10/10 08:02:30;;;;;;;3.63;2.37;;;11.20;99.90;;;;;;5110859;28;20198;-70
2022/10/10 08:04:57;;;;;;;3.33;2.37;;;11.20;99.90;;;;;;5111645;27;20569;-69
2022/10/10 08:07:24;;;;;;;3.30;2.50;;;11.30;99.90;;;;;;5131314;27;20217;-69
2022/10/10 08:09:51;;;;;;;4.73;2.30;;;11.40;99.90;;;;;;5130916;27;20707;-69
2022/10/10 08:12:17;;;;;;;4.17;2.33;;;11.40;99.90;;;;;;5131087;27;20213;-69
2022/10/10 08:14:46;;;;;;;3.70;2.30;;;11.40;99.90;;;;;;5131146;27;20209;-69
2022/10/10 08:17:12;;;;;;;3.60;2.13;;;11.50;99.90;;;;;;5131595;27;20205;-69
2022/10/10 08:19:39;;;;;;;4.70;2.40;;;11.60;99.90;;;;;;5131112;27;20202;-68
2022/10/10 08:22:06;;;;;;;4.27;2.20;;;11.70;99.90;;;;;;5120432;27;20988;-69
2022/10/10 08:24:32;;;;;;;2.10;1.90;;;11.80;99.90;;;;;;5110044;28;20653;-69
2022/10/10 08:26:59;;;;;;;4.27;2.30;;;11.80;99.90;;;;;;5109952;28;20229;-68
2022/10/10 08:29:26;;;;;;;5.43;2.60;;;11.90;99.90;;;;;;5110401;28;20222;-69
2022/10/10 08:31:54;;;;;;;2.50;2.10;;;12.00;99.90;;;;;;5109895;28;20233;-69
2022/10/10 08:34:21;;;;;;;3.50;2.10;;;12.10;99.90;;;;;;5113790;27;20378;-69
2022/10/10 08:36:48;;;;;;;2.47;2.00;;;12.20;99.90;;;;;;5130146;27;20664;-69
2022/10/10 08:39:16;;;;;;;4.60;2.27;;;12.20;99.90;;;;;;5130174;27;20686;-69
2022/10/10 08:41:49;;;;;;;3.30;2.40;;;12.30;99.90;;;;;;5129511;27;20201;-69
2022/10/10 08:44:22;;;;;;;3.23;2.53;;;12.40;99.90;;;;;;5130502;27;20193;-69
2022/10/10 08:46:53;;;;;;;4.77;2.37;;;12.40;99.90;;;;;;5130140;27;20189;-69
2022/10/10 08:49:27;;;;;;;3.10;2.10;;;12.40;99.90;;;;;;5130021;27;20691;-69
2022/10/10 08:52:03;;;;;;;3.60;2.30;;;12.50;99.90;;;;;;5129684;27;20209;-69
2022/10/10 08:54:32;;;;;;;3.37;2.23;;;12.60;99.90;;;;;;5120337;27;20197;-69
2022/10/10 08:57:00;;;;;;;2.30;2.10;;;12.60;99.90;;;;;;5109273;28;20206;-69
2022/10/10 08:59:33;;;;;;;2.30;2.10;;;12.60;99.90;;;;;;5109437;28;20206;-69
2022/10/10 09:02:18;;;;;;;4.33;2.30;;;12.70;99.90;;;;;;5116542;27;20375;-69
2022/10/10 09:04:46;;;;;;;3.33;1.90;;;12.70;99.90;;;;;;5128332;27;20419;-69
2022/10/10 09:07:24;;;;;;;2.93;2.03;;;12.80;99.90;;;;;;5129840;27;20210;-68
2022/10/10 09:09:59;;;;;;;3.27;2.27;;;12.80;99.90;;;;;;5129408;27;20746;-69
2022/10/10 09:12:33;;;;;;;3.67;2.37;;;12.90;99.90;;;;;;5129255;27;20208;-69
2022/10/10 09:15:09;;;;;;;3.83;3.20;;;12.90;99.90;;;;;;5129249;27;20189;-69
2022/10/10 09:17:39;;;;;;;2.83;2.63;;;13.10;99.90;;;;;;5129418;27;20556;-69
2022/10/10 09:20:35;;;;;;;3.50;2.17;;;13.20;99.90;;;;;;5129375;27;20240;-69
2022/10/10 09:23:05;;;;;;;2.30;2.10;;;13.40;99.90;;;;;;5129199;27;20207;-68
2022/10/10 09:25:38;;;;;;;4.50;2.73;;;13.60;99.90;;;;;;5129318;27;20231;-68
2022/10/10 09:28:12;;;;;;;2.30;2.10;;;13.70;99.90;;;;;;5129172;27;20663;-68
2022/10/10 09:30:46;;;;;;;4.47;2.40;;;13.80;99.90;;;;;;5129500;27;20220;-69
2022/10/10 09:33:23;;;;;;;5.63;2.60;;;13.80;99.90;;;;;;5129601;27;20197;-69
2022/10/10 09:35:53;;;;;;;4.07;2.30;;;13.70;99.90;;;;;;5129158;27;20204;-69
2022/10/10 09:38:31;;;;;;;5.20;2.40;;;13.70;99.90;;;;;;5129298;27;20201;-69
2022/10/10 09:41:02;;;;;;;3.90;2.47;;;13.60;99.90;;;;;;5128818;27;20233;-69
2022/10/10 09:43:31;;;;;;;3.47;2.53;;;13.60;99.90;;;;;;5128854;27;20196;-69
2022/10/10 09:45:58;;;;;;;10.87;3.33;;;13.50;99.90;;;;;;5128977;27;20202;-70
2022/10/10 09:48:29;;;;;;;6.53;3.03;;;13.50;99.90;;;;;;5126087;27;20202;-69
2022/10/10 09:50:57;;;;;;;5.50;2.80;;;13.50;99.90;;;;;;5119226;27;20203;-70
2022/10/10 09:53:24;;;;;;;5.00;2.17;;;13.40;99.90;;;;;;5108166;28;20657;-69
2022/10/10 09:55:52;;;;;;;5.03;2.73;;;13.50;99.90;;;;;;5108063;28;20220;-69
2022/10/10 09:58:26;;;;;;;6.00;2.57;;;13.40;99.90;;;;;;5108523;28;20220;-69
2022/10/10 10:00:53;;;;;;;2.73;2.47;;;13.50;99.90;;;;;;5124755;27;20241;-69
2022/10/10 10:03:21;;;;;;;4.83;2.33;;;13.60;99.90;;;;;;5128903;27;20209;-70
2022/10/10 10:05:56;;;;;;;6.43;2.40;;;13.70;99.90;;;;;;5128839;27;20209;-69
2022/10/10 10:08:28;;;;;;;3.73;2.30;;;13.90;99.90;;;;;;5128589;27;20195;-69
2022/10/10 10:10:58;;;;;;;3.87;2.03;;;14.00;99.90;;;;;;5128519;27;20213;-69
2022/10/10 10:13:28;;;;;;;5.13;2.10;;;14.10;99.90;;;;;;5128895;27;20212;-69
2022/10/10 10:16:05;;;;;;;4.20;2.20;;;14.30;99.90;;;;;;5128671;27;20288;-69
2022/10/10 10:18:39;;;;;;;3.43;1.83;;;14.40;99.90;;;;;;5128823;27;20200;-69
2022/10/10 10:21:13;;;;;;;2.67;2.17;;;14.50;99.90;;;;;;5128833;27;20190;-70
2022/10/10 10:23:48;;;;;;;7.73;2.33;;;14.60;99.90;;;;;;5128321;27;20199;-69
2022/10/10 10:26:18;;;;;;;4.63;2.20;;;14.80;99.90;;;;;;5128577;27;20193;-70
2022/10/10 10:28:46;;;;;;;8.77;2.40;;;14.90;99.90;;;;;;5128692;27;20209;-69
2022/10/10 10:31:24;;;;;;;10.30;2.27;;;14.90;99.90;;;;;;5128628;27;20201;-69
2022/10/10 10:34:00;;;;;;;4.93;2.60;;;15.00;99.90;;;;;;5128459;27;20193;-69
2022/10/10 10:36:35;;;;;;;4.83;2.00;;;15.00;99.90;;;;;;5107949;28;20194;-69
2022/10/10 10:39:18;;;;;;;2.07;1.90;;;15.00;99.90;;;;;;5108071;28;20202;-69
2022/10/10 10:41:53;;;;;;;5.93;2.07;;;15.20;99.90;;;;;;5107772;28;20201;-69
2022/10/10 10:44:29;;;;;;;3.63;2.20;;;15.30;99.90;;;;;;5108128;28;20193;-69
2022/10/10 10:47:07;;;;;;;3.50;1.77;;;15.40;99.90;;;;;;5107689;28;20201;-70
2022/10/10 10:49:42;;;;;;;2.83;1.83;;;15.50;99.90;;;;;;5107735;28;20226;-69
2022/10/10 10:52:34;;;;;;;3.53;2.03;;;15.60;99.90;;;;;;5118455;28;20204;-69
2022/10/10 10:55:16;;;;;;;2.77;1.90;;;15.70;99.90;;;;;;5128486;27;20189;-69
2022/10/10 10:58:04;;;;;;;5.60;2.07;;;15.80;99.90;;;;;;5116300;28;20202;-70
2022/10/10 11:00:37;;;;;;;7.03;2.40;;;15.90;99.90;;;;;;5062604;28;20241;-69
2022/10/10 11:03:18;;;;;;;2.80;2.17;;;16.00;99.90;;;;;;5107323;28;20220;-70
2022/10/10 11:05:49;;;;;;;3.47;2.23;;;16.00;99.90;;;;;;5111709;28;20197;-69
2022/10/10 11:08:34;;;;;;;4.67;2.00;;;16.20;99.90;;;;;;5111284;28;20198;-69
2022/10/10 11:11:21;;;;;;;2.67;1.97;;;16.30;99.90;;;;;;5110991;28;20706;-69
2022/10/10 11:13:56;;;;;;;4.13;1.90;;;16.40;99.90;;;;;;5111624;28;20190;-69
2022/10/10 11:16:27;;;;;;;3.07;1.90;;;16.50;99.90;;;;;;5111339;28;20537;-70
2022/10/10 11:19:07;;;;;;;2.23;1.80;;;16.60;99.90;;;;;;5111592;28;20193;-69
2022/10/10 11:21:38;;;;;;;3.53;1.97;;;16.60;99.90;;;;;;5117142;27;20204;-69
2022/10/10 11:24:11;;;;;;;3.57;1.97;;;16.80;99.90;;;;;;5131907;27;20189;-69
2022/10/10 11:26:46;;;;;;;3.30;2.27;;;16.80;99.90;;;;;;5131867;27;20190;-69
2022/10/10 11:29:18;;;;;;;2.80;1.90;;;17.00;99.90;;;;;;5131425;27;20193;-69
2022/10/10 11:31:51;;;;;;;2.50;2.00;;;17.10;99.90;;;;;;5131657;27;20217;-69
2022/10/10 11:34:23;;;;;;;4.10;1.93;;;17.10;99.90;;;;;;5131374;27;20687;-68
2022/10/10 11:36:54;;;;;;;2.13;1.93;;;17.30;99.90;;;;;;5131742;27;20193;-69
2022/10/10 11:39:26;;;;;;;2.00;1.90;;;17.30;99.90;;;;;;5131767;27;20229;-69
2022/10/10 11:41:59;;;;;;;2.83;1.93;;;17.50;99.90;;;;;;5131582;27;20333;-69
2022/10/10 11:44:31;;;;;;;2.77;2.20;;;17.50;99.90;;;;;;5131433;27;20212;-69
2022/10/10 11:47:06;;;;;;;2.30;1.87;;;17.50;99.90;;;;;;5131519;27;20197;-69
2022/10/10 11:49:42;;;;;;;2.97;2.07;;;17.60;99.90;;;;;;5131522;27;20217;-69
2022/10/10 11:52:20;;;;;;;3.13;1.90;;;17.70;99.90;;;;;;5120705;27;20221;-69
2022/10/10 11:54:53;;;;;;;2.27;2.07;;;17.80;99.90;;;;;;5122653;27;20205;-69
2022/10/10 11:57:27;;;;;;;2.20;2.07;;;17.80;99.90;;;;;;5131000;27;20190;-69
2022/10/10 12:00:00;;;;;;;4.67;2.00;;;17.90;99.90;;;;;;5131013;27;20262;-70
2022/10/10 12:02:32;;;;;;;2.33;2.13;;;17.90;99.90;;;;;;5131324;27;20189;-69
2022/10/10 12:04:59;;;;;;;4.43;2.23;;;18.00;99.90;;;;;;5131265;27;20190;-70
2022/10/10 12:07:31;;;;;;;3.43;2.20;;;18.10;99.90;;;;;;5131102;27;20201;-69
2022/10/10 12:10:06;;;;;;;4.73;2.10;;;18.20;99.90;;;;;;5130984;27;20216;-69
2022/10/10 12:12:38;;;;;;;3.63;1.70;;;18.20;99.90;;;;;;5131253;27;20200;-69
2022/10/10 12:15:09;;;;;;;5.40;2.33;;;18.30;99.90;;;;;;5130099;27;20194;-70
2022/10/10 12:17:40;;;;;;;8.33;2.60;;;18.40;99.90;;;;;;5130716;27;20288;-70
2022/10/10 12:20:30;;;;;;;2.20;1.83;;;18.50;99.90;;;;;;5130922;27;20216;-69
2022/10/10 12:23:10;;;;;;;4.20;2.03;;;18.60;99.90;;;;;;5130616;27;20281;-69
2022/10/10 12:25:41;;;;;;;2.27;2.00;;;18.70;99.90;;;;;;5130449;27;20205;-69
2022/10/10 12:28:25;;;;;;;3.37;2.17;;;18.80;99.90;;;;;;5130582;27;20668;-69
2022/10/10 12:31:18;;;;;;;2.73;2.20;;;18.80;99.90;;;;;;5130316;27;20316;-70
2022/10/10 12:34:14;;;;;;;4.53;2.13;;;18.80;99.90;;;;;;5130503;27;20206;-69
2022/10/10 12:37:21;;;;;;;3.90;1.90;;;18.80;99.90;;;;;;5110224;28;20458;-70
2022/10/10 12:40:19;;;;;;;2.70;2.20;;;18.90;99.90;;;;;;5121876;27;20304;-70
2022/10/10 12:43:04;;;;;;;3.73;2.27;;;19.00;99.90;;;;;;5066559;28;20188;-69
2022/10/10 12:45:58;;;;;;;4.30;2.57;;;19.20;99.90;;;;;;5123571;27;20408;-69
2022/10/10 12:48:25;;;;;;;3.10;2.57;;;19.30;99.90;;;;;;5126935;27;20200;-70
2022/10/10 12:50:58;;;;;;;3.27;2.13;;;19.40;99.90;;;;;;5117688;27;20738;-69
2022/10/10 12:53:27;;;;;;;4.10;2.10;;;19.40;99.90;;;;;;5109608;28;20210;-69
2022/10/10 12:55:56;;;;;;;7.23;2.23;;;19.60;99.90;;;;;;5109421;28;20209;-69
2022/10/10 12:58:27;;;;;;;3.67;2.23;;;19.60;99.90;;;;;;5109403;27;20209;-69
2022/10/10 13:00:56;;;;;;;3.77;2.33;;;19.70;99.90;;;;;;5109214;28;20241;-68
2022/10/10 13:03:30;;;;;;;3.17;2.40;;;19.80;99.90;;;;;;5109343;28;20202;-70
2022/10/10 13:06:04;;;;;;;5.28;2.60;;;19.90;99.90;;;;;;5109005;28;20720;-70